Time;durP1;ratioP1;P1;durP2;ratioP2;P2;SDS_P1;SDS_P2;PMS_P1;PMS_P2;Temp;Humidity;BMP_temperature;BMP_pressure;BME280_temperature;BME280_humidity;BME280_pressure;Samples;Min_cycle;Max_cycle;Signal;HPM_P1;HPM_P2
2023/08/09 00:00:43;;;;;;;4.15;2.03;;;;;;;12.36;100.00;98147.19;4173334;28;20492;-72
2023/08/09 00:02:44;;;;;;;4.20;2.22;;;;;;;12.34;100.00;98146.00;4173109;28;20045;-72
2023/08/09 00:04:44;;;;;;;4.57;2.10;;;;;;;12.32;100.00;98143.59;4173215;28;20036;-72
2023/08/09 00:06:44;;;;;;;3.08;2.00;;;;;;;12.27;100.00;98138.47;4174004;28;20065;-72
2023/08/09 00:08:45;;;;;;;4.88;1.98;;;;;;;12.26;100.00;98130.56;4172628;28;20171;-72
2023/08/09 00:10:45;;;;;;;3.42;1.95;;;;;;;12.25;100.00;98135.31;4173490;28;20055;-72
2023/08/09 00:12:45;;;;;;;4.88;1.95;;;;;;;12.25;100.00;98129.78;4172723;28;20074;-72
2023/08/09 00:14:46;;;;;;;4.57;1.92;;;;;;;12.23;100.00;98132.13;4173479;28;20049;-72
2023/08/09 00:16:46;;;;;;;3.28;2.03;;;;;;;12.27;100.00;98132.13;4173683;28;20040;-72
2023/08/09 00:18:46;;;;;;;5.10;2.05;;;;;;;12.27;100.00;98137.69;4173535;28;20049;-72
2023/08/09 00:20:47;;;;;;;3.17;1.83;;;;;;;12.29;100.00;98122.22;4173149;28;20288;-72
2023/08/09 00:22:47;;;;;;;3.22;1.83;;;;;;;12.34;100.00;98132.94;4173012;28;20041;-72
2023/08/09 00:24:47;;;;;;;3.15;1.70;;;;;;;12.39;100.00;98131.72;4173344;28;20265;-72
2023/08/09 00:26:47;;;;;;;2.60;1.80;;;;;;;12.40;100.00;98129.72;4172962;28;20085;-72
2023/08/09 00:28:48;;;;;;;3.88;2.30;;;;;;;12.43;100.00;98118.66;4173715;28;20174;-72
2023/08/09 00:30:48;;;;;;;3.47;2.00;;;;;;;12.48;100.00;98120.22;4173333;28;20596;-72
2023/08/09 00:32:49;;;;;;;3.55;2.10;;;;;;;12.51;100.00;98116.66;4172856;28;20049;-72
2023/08/09 00:34:49;;;;;;;3.70;1.90;;;;;;;12.52;100.00;98119.03;4172916;28;21177;-72
2023/08/09 00:36:51;;;;;;;4.05;1.80;;;;;;;12.56;100.00;98125.34;4173435;28;20055;-72
2023/08/09 00:38:51;;;;;;;4.72;1.80;;;;;;;12.60;100.00;98115.03;4173057;28;20111;-72
2023/08/09 00:40:51;;;;;;;3.78;1.88;;;;;;;12.60;100.00;98117.03;4172238;28;20464;-72
2023/08/09 00:42:52;;;;;;;3.63;1.88;;;;;;;12.62;100.00;98114.63;4172641;28;20053;-72
2023/08/09 00:44:52;;;;;;;3.30;1.83;;;;;;;12.61;100.00;98119.41;4172895;28;20413;-72
2023/08/09 00:46:53;;;;;;;2.42;1.60;;;;;;;12.66;100.00;98112.66;4172704;28;20511;-72
2023/08/09 00:48:53;;;;;;;2.42;1.80;;;;;;;12.71;100.00;98106.69;4173171;28;20056;-72
2023/08/09 00:50:53;;;;;;;3.08;2.08;;;;;;;12.74;100.00;98103.09;4172694;28;20084;-72
2023/08/09 00:52:55;;;;;;;3.67;1.80;;;;;;;12.73;100.00;98101.50;4172590;28;20489;-72
2023/08/09 00:54:56;;;;;;;4.88;2.03;;;;;;;12.74;100.00;98097.53;4172811;28;20088;-72
2023/08/09 00:56:57;;;;;;;4.03;2.03;;;;;;;12.75;100.00;98090.81;4172843;28;20430;-72
2023/08/09 00:58:57;;;;;;;2.97;2.05;;;;;;;12.77;100.00;98095.97;4173046;28;20074;-72
2023/08/09 01:00:58;;;;;;;4.25;2.17;;;;;;;12.73;100.00;98095.97;4172953;28;20507;-72
2023/08/09 01:02:59;;;;;;;4.53;2.35;;;;;;;12.69;100.00;98089.63;4172028;28;20225;-72
2023/08/09 01:05:03;;;;;;;3.17;1.92;;;;;;;12.69;100.00;98091.63;4172482;28;20084;-72
2023/08/09 01:07:29;;;;;;;2.90;1.98;;;;;;;12.67;100.00;98092.03;4172521;28;20057;-72
2023/08/09 01:09:39;;;;;;;3.30;2.17;;;;;;;12.64;100.00;98079.72;4171439;28;20085;-72
2023/08/09 01:11:51;;;;;;;4.68;2.25;;;;;;;12.62;100.00;98084.91;4172941;28;20045;-72
2023/08/09 01:13:53;;;;;;;2.55;1.95;;;;;;;12.63;100.00;98080.94;4171787;28;20049;-72
2023/08/09 01:15:54;;;;;;;3.22;2.00;;;;;;;12.62;100.00;98079.34;4172340;28;20086;-72
2023/08/09 01:17:55;;;;;;;2.85;2.00;;;;;;;12.62;100.00;98081.34;4172869;28;20047;-72
2023/08/09 01:19:57;;;;;;;5.20;2.10;;;;;;;12.60;100.00;98080.94;4173057;28;20052;-72
2023/08/09 01:22:03;;;;;;;3.22;1.80;;;;;;;12.56;100.00;98071.81;4172275;28;20103;-72
2023/08/09 01:24:05;;;;;;;4.10;2.78;;;;;;;12.57;100.00;98074.19;4171660;28;20040;-72
2023/08/09 01:26:06;;;;;;;;;;;;;;;12.57;100.00;98076.19;4172886;28;20039;-72
2023/08/09 01:28:06;;;;;;;3.53;1.98;;;;;;;12.54;100.00;98068.66;4172299;28;19917;-72
2023/08/09 01:30:08;;;;;;;6.72;1.92;;;;;;;12.53;100.00;98059.56;4172684;28;20700;-72
2023/08/09 01:32:09;;;;;;;6.00;2.42;;;;;;;12.53;100.00;98059.56;4172167;28;20037;-72
2023/08/09 01:34:09;;;;;;;2.13;1.73;;;;;;;12.51;100.00;98056.41;4171489;28;20553;-72
2023/08/09 01:36:18;;;;;;;4.50;2.00;;;;;;;12.50;100.00;98052.03;4173039;28;20044;-72
2023/08/09 01:38:24;;;;;;;3.20;1.85;;;;;;;12.50;100.00;98046.50;4173299;28;20441;-72
2023/08/09 01:40:25;;;;;;;3.13;1.95;;;;;;;12.53;100.00;98047.66;4172158;28;20090;-72
2023/08/09 01:42:26;;;;;;;4.65;1.98;;;;;;;12.54;100.00;98035.38;4171650;28;20045;-72
2023/08/09 01:44:27;;;;;;;2.50;1.75;;;;;;;12.53;100.00;98031.81;4171815;28;20044;-72
2023/08/09 01:46:27;;;;;;;2.33;1.80;;;;;;;12.53;100.00;98039.34;4172340;28;20059;-72
2023/08/09 01:48:28;;;;;;;3.20;2.00;;;;;;;12.51;100.00;98030.63;4172364;28;20045;-72
2023/08/09 01:50:28;;;;;;;4.55;2.17;;;;;;;12.51;100.00;98025.09;4172673;28;20516;-72
2023/08/09 01:52:29;;;;;;;2.10;1.60;;;;;;;12.50;100.00;98026.28;4171818;28;20464;-72
2023/08/09 01:54:29;;;;;;;4.93;1.80;;;;;;;12.55;100.00;98023.06;4171627;28;20504;-72
2023/08/09 01:56:30;;;;;;;3.33;2.05;;;;;;;12.54;100.00;98019.50;4172655;28;20052;-72
2023/08/09 01:58:30;;;;;;;4.03;2.00;;;;;;;12.56;100.00;98021.88;4172079;28;20049;-72
2023/08/09 02:00:32;;;;;;;3.63;1.90;;;;;;;12.52;100.00;98026.66;4173012;28;20083;-72
2023/08/09 02:02:32;;;;;;;3.67;1.85;;;;;;;12.46;100.00;98029.06;4175195;28;20056;-72
2023/08/09 02:04:32;;;;;;;3.30;2.10;;;;;;;12.45;100.00;98018.34;4175387;28;20053;-72
2023/08/09 02:06:32;;;;;;;5.28;2.03;;;;;;;12.43;100.00;98015.19;4174976;28;20164;-72
2023/08/09 02:08:33;;;;;;;3.47;2.10;;;;;;;12.40;100.00;98008.44;4175457;28;20370;-72
2023/08/09 02:10:33;;;;;;;3.08;1.92;;;;;;;12.40;100.00;98007.66;4175764;28;20045;-72
2023/08/09 02:12:34;;;;;;;3.25;1.88;;;;;;;12.41;100.00;98006.47;4174976;28;20417;-72
2023/08/09 02:14:34;;;;;;;2.85;1.73;;;;;;;12.46;100.00;98011.63;4175112;28;20045;-72
2023/08/09 02:16:35;;;;;;;3.28;1.98;;;;;;;12.48;100.00;98004.47;4174946;28;20554;-72
2023/08/09 02:18:35;;;;;;;3.35;1.50;;;;;;;12.50;100.00;98009.63;4175521;28;20053;-72
2023/08/09 02:20:36;;;;;;;2.58;1.73;;;;;;;12.52;100.00;98010.81;4175466;28;20067;-72
2023/08/09 02:22:37;;;;;;;2.47;1.67;;;;;;;12.53;100.00;98006.84;4173893;28;20099;-72
2023/08/09 02:24:37;;;;;;;3.92;2.05;;;;;;;12.55;100.00;98004.44;4175229;28;20424;-72
2023/08/09 02:26:39;;;;;;;3.15;1.92;;;;;;;12.59;100.00;98001.66;4175275;28;20045;-72
2023/08/09 02:28:39;;;;;;;2.70;1.92;;;;;;;12.59;100.00;97996.91;4175400;28;20078;-72
2023/08/09 02:30:40;;;;;;;1.83;1.50;;;;;;;12.60;100.00;97997.69;4175275;28;20131;-72
2023/08/09 02:32:40;;;;;;;2.10;1.65;;;;;;;12.57;100.00;97992.94;4174770;28;20077;-72
2023/08/09 02:34:40;;;;;;;2.63;1.60;;;;;;;12.60;100.00;98001.25;4175173;28;20565;-72
2023/08/09 02:36:41;;;;;;;3.53;1.75;;;;;;;12.61;100.00;97997.28;4174221;28;20124;-72
2023/08/09 02:38:41;;;;;;;1.90;1.63;;;;;;;12.59;100.00;97987.78;4175563;28;20120;-72
2023/08/09 02:40:42;;;;;;;2.58;1.58;;;;;;;12.61;100.00;97979.84;4174748;28;20033;-72
2023/08/09 02:42:42;;;;;;;2.08;1.50;;;;;;;12.60;100.00;97987.38;4174889;28;20413;-72
2023/08/09 02:44:42;;;;;;;2.78;1.70;;;;;;;12.61;100.00;97975.09;4174687;28;20475;-72
2023/08/09 02:46:43;;;;;;;2.40;1.65;;;;;;;12.64;100.00;97977.03;4174938;28;20542;-72
2023/08/09 02:48:43;;;;;;;1.88;1.40;;;;;;;12.67;100.00;97978.25;4175515;28;20049;-72
2023/08/09 02:50:43;;;;;;;2.40;1.50;;;;;;;12.64;100.00;97971.50;4174784;28;20045;-72
2023/08/09 02:52:44;;;;;;;1.40;1.10;;;;;;;12.67;100.00;97986.56;4173762;28;20133;-72
2023/08/09 02:54:44;;;;;;;2.80;1.52;;;;;;;12.68;100.00;97987.34;4174339;28;20487;-72
2023/08/09 02:56:45;;;;;;;2.60;1.27;;;;;;;12.71;100.00;97989.31;4174963;28;20124;-72
2023/08/09 02:58:45;;;;;;;2.70;1.30;;;;;;;12.75;100.00;97984.53;4174965;28;20168;-72
2023/08/09 03:00:45;;;;;;;1.65;1.23;;;;;;;12.73;100.00;97978.59;4174895;28;20068;-72
2023/08/09 03:02:46;;;;;;;2.38;1.30;;;;;;;12.72;100.00;97969.47;4174365;28;20112;-73
2023/08/09 03:04:46;;;;;;;2.15;1.48;;;;;;;12.72;100.00;97980.56;4174881;28;20048;-72
2023/08/09 03:06:46;;;;;;;5.43;1.35;;;;;;;12.71;100.00;97978.22;4175084;28;20167;-73
2023/08/09 03:08:48;;;;;;;1.73;1.20;;;;;;;12.68;100.00;97979.81;4175726;28;20044;-73
2023/08/09 03:10:48;;;;;;;2.10;1.30;;;;;;;12.63;100.00;97971.91;4175051;28;20037;-73
2023/08/09 03:12:49;;;;;;;2.45;1.23;;;;;;;12.64;100.00;97976.25;4173220;28;20114;-72
2023/08/09 03:14:49;;;;;;;2.72;1.70;;;;;;;12.62;100.00;97971.09;4174350;28;20440;-72
2023/08/09 03:16:50;;;;;;;1.27;1.13;;;;;;;12.63;100.00;97974.66;4173681;28;20055;-72
2023/08/09 03:18:51;;;;;;;1.45;1.15;;;;;;;12.64;100.00;97976.25;4176242;28;20049;-73
2023/08/09 03:20:52;;;;;;;1.80;1.15;;;;;;;12.65;100.00;97975.84;4174718;28;20444;-73
2023/08/09 03:22:55;;;;;;;1.75;1.10;;;;;;;12.64;100.00;97987.34;4174590;28;20099;-73
2023/08/09 03:24:55;;;;;;;1.67;1.10;;;;;;;12.68;100.00;97979.81;4174112;28;20053;-72
2023/08/09 03:26:56;;;;;;;2.70;1.50;;;;;;;12.67;100.00;97980.22;4174399;28;20053;-72
2023/08/09 03:28:56;;;;;;;1.77;1.40;;;;;;;12.65;100.00;97975.84;4174507;28;20041;-72
2023/08/09 03:30:56;;;;;;;2.05;1.20;;;;;;;12.66;100.00;97982.22;4173325;28;20183;-72
2023/08/09 03:32:57;;;;;;;3.05;1.00;;;;;;;12.68;100.00;97984.56;4172951;28;20040;-72
2023/08/09 03:34:57;;;;;;;1.95;1.20;;;;;;;12.69;100.00;97989.72;4175401;28;20136;-72
2023/08/09 03:36:58;;;;;;;6.82;1.25;;;;;;;12.67;100.00;97983.00;4174531;28;20049;-72
2023/08/09 03:38:58;;;;;;;1.30;1.20;;;;;;;12.67;100.00;97983.00;4171933;28;20048;-72
2023/08/09 03:40:58;;;;;;;2.83;1.13;;;;;;;12.64;100.00;97976.25;4175438;28;20041;-72
2023/08/09 03:42:59;;;;;;;4.88;1.40;;;;;;;12.65;100.00;98000.03;4173241;28;20500;-72
2023/08/09 03:44:59;;;;;;;1.60;1.10;;;;;;;12.67;100.00;97992.13;4173724;28;20041;-72
2023/08/09 03:46:59;;;;;;;3.10;1.40;;;;;;;12.69;100.00;97988.94;4173732;28;20037;-73
2023/08/09 03:49:00;;;;;;;1.30;1.05;;;;;;;12.74;100.00;97996.81;4173210;28;20048;-72
2023/08/09 03:51:01;;;;;;;2.83;1.10;;;;;;;12.76;100.00;97995.25;4174216;28;20155;-72
2023/08/09 03:53:01;;;;;;;2.55;1.33;;;;;;;12.74;100.00;97996.81;4173355;28;20076;-72
2023/08/09 03:55:02;;;;;;;2.30;1.27;;;;;;;12.74;100.00;97997.59;4174175;28;20045;-72
2023/08/09 03:57:03;;;;;;;1.40;1.25;;;;;;;12.81;100.00;98019.00;4174432;28;20069;-72
2023/08/09 03:59:04;;;;;;;2.38;1.27;;;;;;;12.81;100.00;98050.31;4173395;28;20069;-72
2023/08/09 04:01:04;;;;;;;4.18;1.30;;;;;;;12.75;100.00;98063.06;4173377;28;20041;-73
2023/08/09 04:03:05;;;;;;;1.90;0.95;;;;;;;12.48;100.00;98059.16;4173167;28;20132;-73
2023/08/09 04:05:05;;;;;;;1.83;0.90;;;;;;;12.43;100.00;98065.94;4173266;28;20041;-73
2023/08/09 04:07:05;;;;;;;0.73;0.68;;;;;;;12.23;100.00;98064.78;4173124;28;20050;-73
2023/08/09 04:09:07;;;;;;;2.35;0.80;;;;;;;12.05;100.00;98067.56;4173663;28;20052;-73
2023/08/09 04:11:07;;;;;;;2.33;0.90;;;;;;;12.05;100.00;98081.44;4174108;28;20084;-73
2023/08/09 04:13:08;;;;;;;0.70;0.60;;;;;;;11.99;100.00;98094.09;4173101;28;20053;-73
2023/08/09 04:15:08;;;;;;;0.75;0.50;;;;;;;11.87;100.00;98088.97;4173020;28;20080;-72
2023/08/09 04:17:09;;;;;;;0.70;0.60;;;;;;;11.84;100.00;98096.09;4172958;28;20452;-72
2023/08/09 04:19:09;;;;;;;1.80;0.70;;;;;;;11.74;100.00;98089.31;4173348;28;20051;-72
2023/08/09 04:21:10;;;;;;;1.50;1.00;;;;;;;11.62;100.00;98100.00;4173470;28;20051;-72
2023/08/09 04:23:12;;;;;;;0.98;0.88;;;;;;;11.62;100.00;98089.72;4171832;28;20040;-72
2023/08/09 04:25:12;;;;;;;2.33;1.30;;;;;;;11.54;100.00;98100.00;4173711;28;20056;-72
2023/08/09 04:27:13;;;;;;;1.70;1.38;;;;;;;11.51;100.00;98111.09;4173051;28;20537;-72
2023/08/09 04:29:13;;;;;;;2.03;1.50;;;;;;;11.48;100.00;98107.09;4172335;28;20263;-72
2023/08/09 04:31:13;;;;;;;1.38;1.10;;;;;;;11.48;100.00;98109.88;4173070;28;20424;-72
2023/08/09 04:33:14;;;;;;;2.80;1.30;;;;;;;11.48;100.00;98101.56;4172507;28;20390;-72
2023/08/09 04:35:14;;;;;;;2.13;1.50;;;;;;;11.42;100.00;98105.09;4170802;28;20180;-73
2023/08/09 04:37:15;;;;;;;1.80;1.60;;;;;;;11.38;100.00;98107.88;4174369;28;20051;-73
2023/08/09 04:39:15;;;;;;;1.85;1.48;;;;;;;11.40;100.00;98113.03;4174545;28;20377;-73
2023/08/09 04:41:15;;;;;;;2.88;1.80;;;;;;;11.39;100.00;98116.97;4174337;28;20098;-72
2023/08/09 04:43:17;;;;;;;2.70;1.70;;;;;;;11.36;100.00;98109.47;4173455;28;20053;-73
2023/08/09 04:45:17;;;;;;;2.20;1.80;;;;;;;11.37;100.00;98125.69;4171163;28;20570;-72
2023/08/09 04:47:18;;;;;;;2.00;1.80;;;;;;;11.40;100.00;98137.94;4171779;28;20532;-72
2023/08/09 04:49:18;;;;;;;2.33;1.80;;;;;;;11.39;100.00;98137.16;4172991;28;20411;-73
2023/08/09 04:51:18;;;;;;;6.40;1.80;;;;;;;11.38;100.00;98146.66;4169531;28;20328;-73
2023/08/09 04:53:19;;;;;;;2.60;1.90;;;;;;;11.39;100.00;98151.00;4172109;28;20091;-73
2023/08/09 04:55:19;;;;;;;2.45;1.73;;;;;;;11.41;100.00;98170.00;4169406;28;20837;-73
2023/08/09 04:57:20;;;;;;;2.83;1.92;;;;;;;11.41;100.00;98183.84;4123950;28;20045;-73
2023/08/09 04:59:20;;;;;;;4.22;1.50;;;;;;;11.36;100.00;98192.56;4179313;28;20098;-72
2023/08/09 05:01:20;;;;;;;2.78;1.80;;;;;;;11.29;100.00;98204.41;4172599;28;20040;-73
2023/08/09 05:03:21;;;;;;;3.85;2.00;;;;;;;11.19;100.00;98205.94;4171275;28;20136;-73
2023/08/09 05:05:21;;;;;;;3.45;1.90;;;;;;;11.22;100.00;98216.22;4173257;28;20183;-72
2023/08/09 05:07:21;;;;;;;4.40;1.80;;;;;;;11.20;100.00;98221.38;4171111;28;20044;-72
2023/08/09 05:09:22;;;;;;;2.42;2.00;;;;;;;11.13;100.00;98213.03;4172160;28;20040;-73
2023/08/09 05:11:22;;;;;;;2.15;1.95;;;;;;;11.08;100.00;98218.13;4173962;28;20339;-73
2023/08/09 05:13:23;;;;;;;2.33;1.98;;;;;;;11.06;100.00;98217.72;4170830;28;20148;-73
2023/08/09 05:15:23;;;;;;;3.55;2.10;;;;;;;10.98;100.00;98219.66;4171852;28;20082;-73
2023/08/09 05:17:24;;;;;;;4.68;2.78;;;;;;;11.01;100.00;98218.91;4171285;28;20045;-73
2023/08/09 05:19:24;;;;;;;3.40;2.38;;;;;;;11.02;100.00;98226.03;4172295;28;20210;-73
2023/08/09 05:21:25;;;;;;;4.80;2.15;;;;;;;11.03;100.00;98235.91;4172032;28;20071;-73
2023/08/09 05:23:25;;;;;;;3.13;2.13;;;;;;;11.05;100.00;98229.97;4170918;28;20357;-73
2023/08/09 05:25:25;;;;;;;2.95;2.17;;;;;;;11.05;100.00;98235.53;4172607;28;20621;-73
2023/08/09 05:27:26;;;;;;;2.40;2.20;;;;;;;11.01;100.00;98229.97;4171735;28;20491;-73
2023/08/09 05:29:27;;;;;;;3.42;2.15;;;;;;;11.00;100.00;98230.34;4171903;28;20134;-73
2023/08/09 05:31:27;;;;;;;2.70;1.92;;;;;;;11.01;100.00;98234.72;4172458;28;20048;-73
2023/08/09 05:33:27;;;;;;;4.35;2.17;;;;;;;11.03;100.00;98240.66;4171775;28;20388;-73
2023/08/09 05:35:28;;;;;;;3.05;2.08;;;;;;;11.03;100.00;98235.91;4171962;28;20076;-73
2023/08/09 05:37:28;;;;;;;2.95;2.17;;;;;;;11.08;100.00;98232.75;4172571;28;20091;-73
2023/08/09 05:39:28;;;;;;;2.95;1.98;;;;;;;11.08;100.00;98234.75;4172241;28;20203;-73
2023/08/09 05:41:29;;;;;;;2.25;2.00;;;;;;;11.12;100.00;98233.59;4172149;28;20059;-73
2023/08/09 05:43:29;;;;;;;2.85;2.00;;;;;;;11.18;100.00;98229.28;4171309;28;20040;-73
2023/08/09 05:45:30;;;;;;;4.32;2.45;;;;;;;11.24;100.00;98227.69;4170910;28;20044;-73
2023/08/09 05:47:30;;;;;;;3.58;2.10;;;;;;;11.28;100.00;98222.19;4171958;28;20136;-73
2023/08/09 05:49:30;;;;;;;3.90;2.50;;;;;;;11.35;100.00;98215.91;4172257;28;20044;-73
2023/08/09 05:51:31;;;;;;;3.15;2.17;;;;;;;11.38;100.00;98209.56;4172067;28;20044;-73
2023/08/09 05:53:32;;;;;;;3.00;1.98;;;;;;;11.39;100.00;98220.25;4171884;28;20049;-73
2023/08/09 05:55:32;;;;;;;3.83;2.33;;;;;;;11.44;100.00;98239.28;4172337;28;20041;-73
2023/08/09 05:57:33;;;;;;;6.15;2.53;;;;;;;11.42;100.00;98249.97;4172590;28;20251;-73
2023/08/09 05:59:34;;;;;;;6.63;2.60;;;;;;;11.43;100.00;98250.75;4172435;28;20056;-73
2023/08/09 06:01:34;;;;;;;3.20;2.13;;;;;;;11.48;100.00;98264.22;4172126;28;20155;-73
2023/08/09 06:03:39;;;;;;;2.60;1.85;;;;;;;11.50;100.00;98268.22;4171510;28;20079;-73
2023/08/09 06:05:39;;;;;;;4.28;2.40;;;;;;;11.43;100.00;98268.16;4172174;28;20385;-73
2023/08/09 06:07:40;;;;;;;3.67;2.22;;;;;;;11.50;100.00;98276.53;4172471;28;20128;-73
2023/08/09 06:09:40;;;;;;;3.70;2.03;;;;;;;11.43;100.00;98261.84;4172554;28;20045;-73
2023/08/09 06:11:40;;;;;;;3.08;2.22;;;;;;;11.56;100.00;98270.59;4172212;28;20401;-73
2023/08/09 06:13:41;;;;;;;2.58;1.90;;;;;;;11.61;100.00;98275.75;4172064;28;20053;-73
2023/08/09 06:15:41;;;;;;;3.33;2.25;;;;;;;11.64;100.00;98274.97;4171857;28;20045;-73
2023/08/09 06:17:42;;;;;;;3.08;2.10;;;;;;;11.68;100.00;98271.03;4172279;28;20048;-73
2023/08/09 06:19:42;;;;;;;3.10;2.10;;;;;;;11.71;100.00;98275.00;4172597;28;20055;-73
2023/08/09 06:21:43;;;;;;;2.88;2.38;;;;;;;11.78;100.00;98295.22;4172115;28;20125;-73
2023/08/09 06:23:44;;;;;;;3.00;2.53;;;;;;;11.79;100.00;98296.81;4170976;28;20053;-73
2023/08/09 06:25:46;;;;;;;3.35;2.10;;;;;;;11.93;100.00;98298.09;4172296;28;20049;-73
2023/08/09 06:27:46;;;;;;;;;;;;;;;11.96;100.00;98294.53;4172698;28;20374;-73
2023/08/09 06:29:47;;;;;;;3.55;2.10;;;;;;;11.95;100.00;98299.28;4171673;28;20019;-73
2023/08/09 06:31:47;;;;;;;2.80;1.98;;;;;;;12.01;100.00;98297.72;4172136;28;20448;-73
2023/08/09 06:33:48;;;;;;;3.85;2.92;;;;;;;12.08;100.00;98294.16;4171375;28;20084;-73
2023/08/09 06:35:49;;;;;;;3.05;2.30;;;;;;;12.10;100.00;98305.66;4171731;28;20053;-73
2023/08/09 06:37:50;;;;;;;2.88;2.00;;;;;;;12.03;100.00;98300.88;4171359;28;20087;-73
2023/08/09 06:39:50;;;;;;;3.92;2.08;;;;;;;12.04;100.00;98298.91;4171824;28;20037;-72
2023/08/09 06:41:51;;;;;;;2.88;1.70;;;;;;;12.06;100.00;98311.19;4172528;28;20161;-73
2023/08/09 06:43:51;;;;;;;2.28;1.80;;;;;;;12.12;100.00;98310.81;4170563;28;20083;-72
2023/08/09 06:45:52;;;;;;;2.28;1.83;;;;;;;12.12;100.00;98319.13;4172047;28;20098;-73
2023/08/09 06:47:52;;;;;;;4.43;1.88;;;;;;;12.14;100.00;98312.00;4172872;28;20049;-72
2023/08/09 06:49:53;;;;;;;3.13;1.83;;;;;;;12.17;100.00;98313.22;4174679;28;20126;-72
2023/08/09 06:51:55;;;;;;;2.92;1.90;;;;;;;12.22;100.00;98313.59;4175185;28;20151;-72
2023/08/09 06:53:55;;;;;;;2.70;2.20;;;;;;;12.21;100.00;98311.22;4174011;28;20045;-72
2023/08/09 06:55:55;;;;;;;3.17;2.10;;;;;;;12.28;100.00;98333.44;4174958;28;20631;-72
2023/08/09 06:57:56;;;;;;;2.10;1.75;;;;;;;12.35;100.00;98323.16;4174360;28;20733;-71
2023/08/09 06:59:56;;;;;;;3.13;1.83;;;;;;;12.37;100.00;98322.75;4174622;28;20436;-72
2023/08/09 07:01:57;;;;;;;2.83;1.77;;;;;;;12.44;100.00;98331.09;4174747;28;20098;-72
2023/08/09 07:03:57;;;;;;;3.47;2.10;;;;;;;12.58;100.00;98328.34;4174197;28;20396;-72
2023/08/09 07:05:58;;;;;;;3.22;2.00;;;;;;;12.65;100.00;98330.31;4174709;28;20051;-72
2023/08/09 07:07:59;;;;;;;2.40;1.60;;;;;;;12.78;100.00;98330.72;4174486;28;20126;-72
2023/08/09 07:09:59;;;;;;;2.20;1.88;;;;;;;12.83;100.00;98333.13;4174881;28;20045;-71
2023/08/09 07:11:59;;;;;;;2.20;1.40;;;;;;;12.89;100.00;98339.84;4174603;28;20454;-71
2023/08/09 07:14:00;;;;;;;2.53;1.77;;;;;;;12.88;100.00;98338.25;4173620;28;20539;-71
2023/08/09 07:16:00;;;;;;;2.80;1.50;;;;;;;12.94;100.00;98331.91;4174798;28;20496;-71
2023/08/09 07:18:00;;;;;;;2.28;1.40;;;;;;;12.87;100.00;98343.03;4189538;28;20059;-71
2023/08/09 07:20:02;;;;;;;2.08;1.65;;;;;;;12.78;100.00;98342.63;4174722;28;20044;-72
2023/08/09 07:22:03;;;;;;;2.72;1.70;;;;;;;12.92;100.00;98348.19;4174464;28;20055;-72
2023/08/09 07:24:03;;;;;;;2.58;1.70;;;;;;;12.93;100.00;98341.44;4173623;28;20472;-72
2023/08/09 07:26:04;;;;;;;1.83;1.50;;;;;;;12.98;100.00;98342.22;4174479;28;20032;-72
2023/08/09 07:28:05;;;;;;;1.75;1.52;;;;;;;13.10;100.00;98347.38;4174175;28;20128;-72
2023/08/09 07:30:06;;;;;;;2.63;1.40;;;;;;;13.07;100.00;98348.97;4174456;28;20024;-71
2023/08/09 07:32:06;;;;;;;2.25;1.42;;;;;;;13.14;100.00;98348.16;4174258;28;20354;-72
2023/08/09 07:34:06;;;;;;;1.52;1.02;;;;;;;13.14;100.00;98357.28;4172139;28;20027;-72
2023/08/09 07:36:07;;;;;;;2.00;1.50;;;;;;;13.26;100.00;98356.13;4174523;28;20225;-72
2023/08/09 07:38:07;;;;;;;1.88;1.30;;;;;;;13.33;100.00;98358.13;4172817;28;20025;-72
2023/08/09 07:40:09;;;;;;;2.00;1.40;;;;;;;13.49;100.00;98362.06;4174170;28;20396;-71
2023/08/09 07:42:10;;;;;;;1.50;1.20;;;;;;;13.58;100.00;98371.97;4173817;28;20648;-71
2023/08/09 07:44:10;;;;;;;1.55;1.40;;;;;;;13.53;100.00;98366.81;4173415;28;20056;-71
2023/08/09 07:46:10;;;;;;;4.10;1.40;;;;;;;13.39;100.00;98375.94;4174226;28;20057;-72
2023/08/09 07:48:11;;;;;;;1.70;1.30;;;;;;;13.34;100.00;98373.59;4174064;28;20036;-71
2023/08/09 07:50:11;;;;;;;1.95;1.40;;;;;;;13.33;100.00;98375.56;4173983;28;20466;-72
2023/08/09 07:52:11;;;;;;;6.20;1.63;;;;;;;13.28;100.00;98380.72;4174208;28;20029;-71
2023/08/09 07:54:12;;;;;;;2.20;1.30;;;;;;;13.46;100.00;98385.06;4173301;28;20402;-71
2023/08/09 07:56:14;;;;;;;2.03;1.50;;;;;;;13.61;100.00;98385.06;4173992;28;20048;-72
2023/08/09 07:58:14;;;;;;;1.85;1.33;;;;;;;13.79;100.00;98380.22;4173686;28;20068;-72
2023/08/09 08:00:17;;;;;;;2.58;1.40;;;;;;;13.99;100.00;98386.94;4173917;28;20041;-71
2023/08/09 08:02:18;;;;;;;3.78;1.50;;;;;;;14.15;100.00;98385.66;4173886;28;20337;-71
2023/08/09 08:04:18;;;;;;;2.47;1.30;;;;;;;14.25;100.00;98384.84;4173253;28;20028;-71
2023/08/09 08:06:20;;;;;;;1.42;1.30;;;;;;;14.27;100.00;98393.56;4173604;28;20089;-71
2023/08/09 08:08:20;;;;;;;1.85;1.13;;;;;;;14.15;100.00;98392.03;4173931;28;20029;-72
2023/08/09 08:10:21;;;;;;;3.65;1.40;;;;;;;14.01;100.00;98392.88;4173878;28;20059;-72
2023/08/09 08:12:23;;;;;;;2.30;1.10;;;;;;;13.96;100.00;98404.41;4173746;28;20051;-72
2023/08/09 08:14:23;;;;;;;3.78;1.60;;;;;;;13.93;100.00;98407.22;4173553;28;20536;-72
2023/08/09 08:16:23;;;;;;;2.25;1.10;;;;;;;13.88;100.00;98400.06;4172856;28;20456;-71
2023/08/09 08:18:25;;;;;;;2.03;1.27;;;;;;;14.02;100.00;98407.59;4173776;28;20048;-72
2023/08/09 08:20:26;;;;;;;2.07;1.37;;;;;;;14.06;100.00;98406.34;4173775;28;20532;-71
2023/08/09 08:22:26;;;;;;;2.38;1.30;;;;;;;14.18;100.00;98413.50;4173023;28;20120;-72
2023/08/09 08:24:26;;;;;;;2.67;1.30;;;;;;;14.31;100.00;98405.47;4173624;28;20060;-72
2023/08/09 08:26:27;;;;;;;1.80;1.30;;;;;;;14.22;100.00;98405.91;4173231;28;20037;-72
2023/08/09 08:28:27;;;;;;;2.00;1.40;;;;;;;14.33;100.00;98403.88;4173380;28;20532;-72
2023/08/09 08:30:27;;;;;;;1.70;1.20;;;;;;;14.42;100.00;98402.66;4172043;28;20041;-72
2023/08/09 08:32:28;;;;;;;1.73;1.17;;;;;;;14.25;100.00;98405.13;4172752;28;20182;-72
2023/08/09 08:34:31;;;;;;;2.42;1.15;;;;;;;14.19;100.00;98411.50;4173358;28;20131;-72
2023/08/09 08:36:32;;;;;;;1.50;1.20;;;;;;;14.14;100.00;98403.56;4173544;28;20037;-72
2023/08/09 08:38:32;;;;;;;2.67;1.23;;;;;;;14.22;100.00;98402.31;4173567;28;20053;-72
2023/08/09 08:40:33;;;;;;;2.80;1.30;;;;;;;14.29;100.00;98407.88;4173327;28;20148;-72
2023/08/09 08:42:34;;;;;;;1.77;1.33;;;;;;;14.40;100.00;98405.03;4172374;28;20060;-72
2023/08/09 08:44:35;;;;;;;2.47;1.13;;;;;;;14.42;100.00;98408.22;4173468;28;20099;-72
2023/08/09 08:46:35;;;;;;;1.48;1.10;;;;;;;14.60;100.00;98411.72;4173322;28;20440;-72
2023/08/09 08:48:36;;;;;;;2.10;1.30;;;;;;;14.70;100.00;98410.88;4173063;28;20041;-72
2023/08/09 08:50:39;;;;;;;1.83;1.10;;;;;;;14.81;100.00;98411.59;4172466;28;20033;-72
2023/08/09 08:52:42;;;;;;;1.80;1.27;;;;;;;14.89;100.00;98410.34;4172733;28;20479;-72
2023/08/09 08:54:43;;;;;;;1.25;1.00;;;;;;;15.04;100.00;98416.59;4173066;28;20083;-72
2023/08/09 08:56:43;;;;;;;1.58;1.10;;;;;;;15.09;100.00;98412.59;4172863;28;20053;-72
2023/08/09 08:58:44;;;;;;;1.20;1.00;;;;;;;15.18;100.00;98421.28;4173332;28;20179;-72
2023/08/09 09:00:45;;;;;;;1.73;1.10;;;;;;;15.26;100.00;98424.81;4173145;28;20053;-72
2023/08/09 09:02:46;;;;;;;1.23;1.10;;;;;;;15.18;100.00;98424.06;4172844;28;20037;-72
2023/08/09 09:04:46;;;;;;;3.28;1.08;;;;;;;14.98;100.00;98420.25;4172533;28;20528;-72
2023/08/09 09:06:47;;;;;;;1.50;1.20;;;;;;;15.05;100.00;98426.53;4172919;28;20048;-72
2023/08/09 09:08:54;;;;;;;2.15;1.35;;;;;;;15.13;100.00;98427.28;4172964;28;20503;-72
2023/08/09 09:10:54;;;;;;;2.33;1.58;;;;;;;15.09;100.00;98426.53;4171332;28;20111;-72
2023/08/09 09:12:58;;;;;;;1.75;1.38;;;;;;;14.92;100.00;98425.44;4172156;28;20381;-72
2023/08/09 09:14:58;;;;;;;2.22;1.38;;;;;;;14.84;100.00;98426.69;4172606;28;20110;-72
2023/08/09 09:16:59;;;;;;;2.63;1.30;;;;;;;14.76;100.00;98428.72;4172884;28;20076;-72
2023/08/09 09:19:00;;;;;;;2.15;1.75;;;;;;;14.58;100.00;98428.84;4171647;28;20132;-72
2023/08/09 09:21:02;;;;;;;2.60;1.20;;;;;;;14.49;100.00;98431.28;4172735;28;20095;-72
2023/08/09 09:23:03;;;;;;;2.35;0.98;;;;;;;14.52;100.00;98438.00;4171836;28;20041;-72